createdAt,value
2018-07-28T00:00:16.064Z,990.60
2018-07-28T00:03:15.447Z,990.63
2018-07-28T00:06:15.919Z,990.64
2018-07-28T00:09:15.205Z,990.63
2018-07-28T00:12:15.483Z,990.65
2018-07-28T00:15:16.075Z,990.62
2018-07-28T00:18:15.596Z,990.57
2018-07-28T00:21:15.831Z,990.52
2018-07-28T00:24:15.424Z,990.50
2018-07-28T00:27:15.946Z,990.45
2018-07-28T00:30:15.404Z,990.41
2018-07-28T00:33:15.765Z,990.42
2018-07-28T00:36:15.138Z,990.37
2018-07-28T00:39:15.529Z,990.38
2018-07-28T00:42:15.852Z,990.41
2018-07-28T00:45:15.167Z,990.40
2018-07-28T00:48:15.498Z,990.35
2018-07-28T00:51:15.787Z,990.33
2018-07-28T00:54:15.161Z,990.35
2018-07-28T00:57:15.418Z,990.34
2018-07-28T01:00:15.910Z,990.32
2018-07-28T01:03:15.413Z,990.33
2018-07-28T01:06:15.758Z,990.31
2018-07-28T01:09:15.102Z,990.27
2018-07-28T01:12:15.222Z,990.26
2018-07-28T01:15:15.553Z,990.16
2018-07-28T01:18:15.919Z,990.08
2018-07-28T01:21:15.270Z,990.04
2018-07-28T01:24:15.515Z,989.99
2018-07-28T01:27:15.832Z,990.02
2018-07-28T01:30:15.005Z,989.99
2018-07-28T01:33:15.847Z,989.97
2018-07-28T01:36:15.020Z,989.94
2018-07-28T01:39:15.233Z,989.91
2018-07-28T01:42:15.358Z,989.87
2018-07-28T01:45:15.530Z,989.84
2018-07-28T01:48:15.731Z,989.79
2018-07-28T01:51:15.017Z,989.80
2018-07-28T01:54:15.132Z,989.72
2018-07-28T01:57:20.367Z,989.71
2018-07-28T02:00:15.611Z,989.67
2018-07-28T02:03:16.817Z,989.61
2018-07-28T02:06:15.072Z,989.59
2018-07-28T02:09:15.309Z,989.56
2018-07-28T02:12:15.474Z,989.55
2018-07-28T02:15:15.639Z,989.53
2018-07-28T02:18:15.873Z,989.55
2018-07-28T02:21:14.963Z,989.51
2018-07-28T02:24:15.151Z,989.51
2018-07-28T02:27:15.308Z,989.52
2018-07-28T02:30:15.532Z,989.47
2018-07-28T02:33:15.733Z,989.45
2018-07-28T02:36:15.948Z,989.44
2018-07-28T02:39:15.530Z,989.40
2018-07-28T02:42:15.703Z,989.37
2018-07-28T02:45:15.913Z,989.37
2018-07-28T02:48:15.209Z,989.28
2018-07-28T02:51:15.361Z,989.28
2018-07-28T02:54:15.520Z,989.31
2018-07-28T02:57:15.686Z,989.32
2018-07-28T03:00:16.114Z,989.30
2018-07-28T03:03:15.287Z,989.33
2018-07-28T03:06:15.492Z,989.29
2018-07-28T03:09:15.728Z,989.28
2018-07-28T03:12:14.995Z,989.25
2018-07-28T03:15:15.373Z,989.23
2018-07-28T03:18:15.272Z,989.21
2018-07-28T03:21:15.555Z,989.23
2018-07-28T03:24:15.738Z,989.26
2018-07-28T03:27:14.998Z,989.31
2018-07-28T03:30:15.267Z,989.31
2018-07-28T03:33:14.992Z,989.35
2018-07-28T03:36:15.213Z,989.38
2018-07-28T03:39:15.308Z,989.36
2018-07-28T03:42:15.457Z,989.45
2018-07-28T03:45:15.551Z,989.51
2018-07-28T03:48:15.806Z,989.42
2018-07-28T03:51:14.952Z,989.56
2018-07-28T03:54:15.171Z,989.54
2018-07-28T03:57:15.199Z,989.53
2018-07-28T04:00:20.656Z,989.40
2018-07-28T04:03:15.856Z,989.22
2018-07-28T04:06:15.034Z,989.18
2018-07-28T04:09:15.140Z,989.18
2018-07-28T04:12:15.357Z,989.17
2018-07-28T04:15:15.549Z,989.10
2018-07-28T04:18:15.734Z,989.25
2018-07-28T04:21:16.077Z,989.61
2018-07-28T04:24:15.293Z,989.50
2018-07-28T04:27:15.717Z,989.35
2018-07-28T04:30:15.950Z,989.48
2018-07-28T04:33:15.227Z,989.46
2018-07-28T04:36:15.415Z,989.42
2018-07-28T04:39:15.582Z,989.33
2018-07-28T04:42:15.789Z,989.29
2018-07-28T04:45:15.792Z,989.32
2018-07-28T04:48:15.093Z,989.25
2018-07-28T04:51:15.380Z,989.19
2018-07-28T04:54:15.641Z,989.28
2018-07-28T04:57:21.053Z,989.15
2018-07-28T05:00:15.734Z,989.16
2018-07-28T05:03:25.287Z,989.00
2018-07-28T05:06:15.536Z,988.91
2018-07-28T05:09:15.971Z,988.90
2018-07-28T05:12:15.575Z,988.82
2018-07-28T05:15:15.296Z,988.89
2018-07-28T05:18:15.980Z,989.01
2018-07-28T05:21:15.679Z,988.92
2018-07-28T05:24:15.407Z,988.90
2018-07-28T05:27:16.015Z,988.96
2018-07-28T05:30:15.836Z,988.91
2018-07-28T05:33:15.549Z,988.83
2018-07-28T05:36:16.135Z,988.88
2018-07-28T05:39:15.924Z,988.91
2018-07-28T05:42:15.534Z,988.86
2018-07-28T05:45:16.024Z,988.84
2018-07-28T05:48:15.731Z,988.90
2018-07-28T05:51:15.416Z,988.93
2018-07-28T05:54:16.222Z,988.85
2018-07-28T05:57:15.982Z,988.73
2018-07-28T06:00:15.721Z,988.76
2018-07-28T06:03:15.327Z,988.78
2018-07-28T06:06:16.059Z,989.07
2018-07-28T06:09:15.694Z,989.27
2018-07-28T06:12:15.409Z,989.09
2018-07-28T06:15:16.002Z,989.12
2018-07-28T06:18:15.966Z,989.23
2018-07-28T06:21:15.657Z,989.00
2018-07-28T06:24:15.489Z,989.10
2018-07-28T06:27:15.527Z,989.07
2018-07-28T06:30:16.262Z,989.10
2018-07-28T06:33:15.917Z,989.13
2018-07-28T06:36:15.494Z,989.31
2018-07-28T06:39:16.216Z,989.82
2018-07-28T06:42:15.808Z,990.06
2018-07-28T06:45:15.841Z,990.34
2018-07-28T06:48:15.666Z,990.11
2018-07-28T06:51:15.251Z,990.21
2018-07-28T06:54:15.804Z,990.10
2018-07-28T06:57:15.408Z,990.08
2018-07-28T07:00:16.044Z,989.98
2018-07-28T07:03:15.722Z,990.14
2018-07-28T07:06:16.245Z,990.26
2018-07-28T07:09:15.951Z,990.37
2018-07-28T07:12:15.650Z,990.33
2018-07-28T07:15:16.442Z,990.33
2018-07-28T07:18:16.235Z,990.44
2018-07-28T07:21:15.964Z,990.53
2018-07-28T07:24:15.692Z,990.50
2018-07-28T07:27:15.355Z,990.45
2018-07-28T07:30:15.848Z,990.39
2018-07-28T07:33:15.451Z,990.33
2018-07-28T07:36:16.201Z,990.33
2018-07-28T07:39:15.764Z,990.18
2018-07-28T07:42:16.169Z,990.26
2018-07-28T07:45:15.762Z,990.31
2018-07-28T07:48:16.098Z,990.30
2018-07-28T07:51:15.580Z,990.28
2018-07-28T07:54:15.595Z,990.27
2018-07-28T07:57:16.086Z,990.33
2018-07-28T08:00:15.557Z,990.28
2018-07-28T08:03:15.196Z,990.23
2018-07-28T08:06:15.659Z,990.18
2018-07-28T08:09:16.157Z,990.06
2018-07-28T08:12:15.663Z,990.01
2018-07-28T08:15:15.386Z,989.98
2018-07-28T08:18:16.049Z,989.94
2018-07-28T08:21:15.686Z,989.95
2018-07-28T08:24:15.406Z,990.03
2018-07-28T08:27:16.147Z,990.12
2018-07-28T08:30:15.773Z,990.24
2018-07-28T08:33:15.541Z,990.27
2018-07-28T08:36:16.204Z,990.33
2018-07-28T08:39:15.929Z,990.38
2018-07-28T08:42:15.528Z,990.33
2018-07-28T08:45:16.196Z,990.50
2018-07-28T08:48:16.048Z,990.52
2018-07-28T08:51:15.723Z,990.46
2018-07-28T08:54:16.238Z,990.60
2018-07-28T08:57:15.861Z,990.75
2018-07-28T09:00:15.450Z,990.81
2018-07-28T09:03:16.265Z,990.73
2018-07-28T09:06:15.856Z,990.74
2018-07-28T09:09:15.531Z,990.81
2018-07-28T09:12:16.211Z,990.77
2018-07-28T09:15:15.928Z,990.64
2018-07-28T09:18:15.764Z,990.61
2018-07-28T09:21:15.701Z,990.58
2018-07-28T09:24:16.287Z,990.56
2018-07-28T09:27:16.101Z,990.50
2018-07-28T09:30:15.826Z,990.59
2018-07-28T09:33:15.485Z,990.72
2018-07-28T09:36:16.242Z,990.84
2018-07-28T09:39:16.055Z,990.85
2018-07-28T09:42:15.668Z,990.85
2018-07-28T09:45:16.336Z,990.83
2018-07-28T09:48:15.946Z,990.74
2018-07-28T09:51:15.731Z,990.72
2018-07-28T09:54:15.384Z,990.81
2018-07-28T09:57:16.188Z,990.83
2018-07-28T10:00:16.017Z,990.74
2018-07-28T10:03:16.058Z,990.73
2018-07-28T10:06:15.437Z,990.69
2018-07-28T10:09:16.066Z,990.67
2018-07-28T10:12:15.708Z,990.51
2018-07-28T10:15:15.389Z,990.57
2018-07-28T10:18:16.113Z,990.73
2018-07-28T10:21:15.808Z,990.83
2018-07-28T10:24:15.459Z,990.84
2018-07-28T10:27:16.058Z,990.81
2018-07-28T10:30:15.780Z,990.80
2018-07-28T10:33:15.637Z,990.76
2018-07-28T10:36:16.443Z,990.77
2018-07-28T10:39:16.168Z,990.83
2018-07-28T10:42:15.736Z,990.75
2018-07-28T10:45:15.422Z,990.71
2018-07-28T10:48:16.038Z,990.70
2018-07-28T10:51:15.579Z,990.77
2018-07-28T10:54:16.238Z,990.71
2018-07-28T10:57:15.790Z,990.72
2018-07-28T11:00:16.034Z,990.73
2018-07-28T11:03:15.772Z,990.67
2018-07-28T11:06:15.482Z,990.74
2018-07-28T11:09:16.163Z,990.64
2018-07-28T11:12:15.974Z,990.67
2018-07-28T11:15:15.589Z,990.65
2018-07-28T11:18:16.214Z,990.67
2018-07-28T11:21:15.879Z,990.60
2018-07-28T11:24:15.909Z,990.61
2018-07-28T11:27:15.528Z,990.51
2018-07-28T11:30:16.217Z,990.61
2018-07-28T11:33:15.832Z,990.49
2018-07-28T11:36:16.269Z,990.46
2018-07-28T11:39:16.542Z,990.45
2018-07-28T11:42:16.370Z,990.46
2018-07-28T11:45:15.579Z,990.42
2018-07-28T11:48:16.274Z,990.37
2018-07-28T11:51:15.894Z,990.33
2018-07-28T11:54:15.493Z,990.41
2018-07-28T11:57:16.145Z,990.34
2018-07-28T12:00:16.010Z,990.36
2018-07-28T12:03:15.824Z,990.28
2018-07-28T12:06:15.464Z,990.51
2018-07-28T12:09:16.133Z,990.37
2018-07-28T12:12:15.940Z,990.43
2018-07-28T12:15:15.583Z,990.45
2018-07-28T12:18:16.316Z,990.45
2018-07-28T12:21:15.912Z,990.43
2018-07-28T12:24:15.668Z,990.44
2018-07-28T12:27:15.337Z,990.37
2018-07-28T12:30:16.149Z,990.42
2018-07-28T12:33:15.806Z,990.40
2018-07-28T12:36:15.530Z,990.43
2018-07-28T12:39:16.203Z,990.38
2018-07-28T12:42:15.871Z,990.34
2018-07-28T12:45:15.416Z,990.32
2018-07-28T12:48:16.101Z,990.33
2018-07-28T12:51:15.848Z,990.39
2018-07-28T12:54:15.555Z,990.58
2018-07-28T12:57:16.222Z,990.41
2018-07-28T13:00:15.793Z,990.70
2018-07-28T13:03:15.394Z,990.85
2018-07-28T13:06:16.053Z,990.93
2018-07-28T13:09:15.625Z,990.94
2018-07-28T13:12:16.254Z,990.80
2018-07-28T13:15:15.933Z,990.77
2018-07-28T13:18:15.701Z,990.93
2018-07-28T13:21:15.490Z,991.00
2018-07-28T13:24:16.123Z,991.02
2018-07-28T13:27:15.893Z,990.91
2018-07-28T13:30:15.578Z,991.05
2018-07-28T13:33:16.336Z,991.03
2018-07-28T13:36:16.102Z,990.96
2018-07-28T13:39:15.956Z,991.02
2018-07-28T13:42:15.700Z,990.87
2018-07-28T13:45:15.687Z,990.86
2018-07-28T13:48:16.313Z,990.91
2018-07-28T13:51:16.129Z,990.91
2018-07-28T13:54:15.884Z,991.08
2018-07-28T13:57:15.471Z,991.00
2018-07-28T14:00:15.555Z,991.03
2018-07-28T14:03:15.518Z,991.04
2018-07-28T14:06:16.240Z,991.04
2018-07-28T14:09:21.015Z,991.08
2018-07-28T14:12:15.718Z,991.20
2018-07-28T14:15:16.247Z,991.12
2018-07-28T14:18:16.064Z,991.16
2018-07-28T14:21:16.034Z,991.23
2018-07-28T14:24:15.698Z,991.20
2018-07-28T14:27:15.441Z,991.13
2018-07-28T14:30:16.253Z,991.13
2018-07-28T14:33:16.035Z,991.12
2018-07-28T14:36:15.689Z,991.13
2018-07-28T14:39:15.412Z,991.13
2018-07-28T14:42:16.202Z,991.11
2018-07-28T14:45:15.657Z,991.07
2018-07-28T14:48:16.682Z,991.01
2018-07-28T14:51:15.359Z,991.07
2018-07-28T14:54:16.019Z,991.09
2018-07-28T14:57:15.885Z,991.12
2018-07-28T15:00:16.485Z,991.08
2018-07-28T15:03:15.395Z,991.13
2018-07-28T15:06:16.164Z,991.12
2018-07-28T15:09:15.919Z,991.10
2018-07-28T15:12:15.653Z,991.19
2018-07-28T15:15:16.351Z,991.18
2018-07-28T15:18:16.092Z,991.16
2018-07-28T15:21:15.933Z,991.21
2018-07-28T15:24:15.542Z,991.25
2018-07-28T15:27:16.152Z,991.24
2018-07-28T15:30:15.996Z,991.24
2018-07-28T15:33:15.569Z,991.18
2018-07-28T15:36:16.239Z,991.24
2018-07-28T15:39:16.145Z,991.30
2018-07-28T15:42:15.755Z,991.35
2018-07-28T15:45:15.578Z,991.28
2018-07-28T15:48:17.400Z,991.25
2018-07-28T15:51:15.431Z,991.24
2018-07-28T15:54:16.019Z,991.22
2018-07-28T15:57:15.645Z,991.19
2018-07-28T16:00:15.411Z,991.26
2018-07-28T16:03:16.023Z,991.23
2018-07-28T16:06:16.202Z,991.19
2018-07-28T16:09:15.837Z,991.21
2018-07-28T16:12:15.412Z,991.22
2018-07-28T16:15:16.026Z,991.27
2018-07-28T16:18:15.752Z,991.30
2018-07-28T16:21:15.451Z,991.27
2018-07-28T16:24:16.177Z,991.41
2018-07-28T16:27:15.780Z,991.40
2018-07-28T16:30:15.564Z,991.47
2018-07-28T16:33:16.194Z,991.45
2018-07-28T16:36:15.867Z,991.44
2018-07-28T16:39:15.480Z,991.46
2018-07-28T16:42:16.425Z,991.52
2018-07-28T16:45:16.047Z,991.61
2018-07-28T16:48:15.668Z,991.65
2018-07-28T16:51:16.272Z,991.64
2018-07-28T16:54:16.088Z,991.70
2018-07-28T16:57:15.728Z,991.72
2018-07-28T17:00:15.394Z,991.85
2018-07-28T17:03:16.172Z,991.88
2018-07-28T17:06:16.364Z,991.94
2018-07-28T17:09:15.968Z,991.99
2018-07-28T17:12:15.555Z,992.05
2018-07-28T17:15:16.443Z,992.13
2018-07-28T17:18:16.146Z,992.23
2018-07-28T17:21:15.895Z,992.30
2018-07-28T17:24:16.091Z,992.35
2018-07-28T17:27:15.793Z,992.40
2018-07-28T17:30:15.811Z,992.48
2018-07-28T17:33:15.839Z,992.48
2018-07-28T17:36:15.878Z,992.46
2018-07-28T17:39:16.034Z,992.54
2018-07-28T17:42:16.183Z,992.62
2018-07-28T17:45:16.408Z,992.60
2018-07-28T17:48:16.557Z,992.67
2018-07-28T17:51:16.002Z,992.73
2018-07-28T17:54:16.424Z,992.83
2018-07-28T17:57:16.538Z,992.84
2018-07-28T18:00:16.697Z,992.82
2018-07-28T18:03:15.851Z,992.87
2018-07-28T18:06:16.034Z,992.91
2018-07-28T18:09:16.449Z,992.96
2018-07-28T18:12:15.707Z,992.99
2018-07-28T18:15:15.831Z,993.04
2018-07-28T18:18:32.502Z,993.02
2018-07-28T18:21:15.438Z,993.09
2018-07-28T18:24:15.398Z,993.14
2018-07-28T18:27:15.517Z,993.26
2018-07-28T18:30:16.268Z,993.29
2018-07-28T18:33:15.981Z,993.26
2018-07-28T18:36:15.573Z,993.32
2018-07-28T18:39:15.443Z,993.38
2018-07-28T18:42:33.705Z,993.41
2018-07-28T19:05:50.546Z,993.63
2018-07-28T19:06:16.263Z,993.63
2018-07-28T19:09:16.075Z,993.71
2018-07-28T19:12:15.632Z,993.73
2018-07-28T19:15:16.020Z,993.82
2018-07-28T19:18:17.032Z,993.87
2018-07-28T19:21:16.807Z,993.92
2018-07-28T19:24:16.028Z,993.98
2018-07-28T19:27:15.697Z,994.00
2018-07-28T19:30:15.697Z,994.02
2018-07-28T19:33:15.449Z,994.01
2018-07-28T19:36:15.290Z,994.01
2018-07-28T19:39:16.017Z,994.07
2018-07-28T19:42:16.262Z,994.12
2018-07-28T19:45:16.068Z,994.15
2018-07-28T19:48:16.024Z,994.22
2018-07-28T19:51:15.989Z,994.27
2018-07-28T19:54:16.099Z,994.29
2018-07-28T19:57:16.209Z,994.38
2018-07-28T20:00:16.149Z,994.40
2018-07-28T20:03:17.157Z,994.44
2018-07-28T20:06:17.118Z,994.53
2018-07-28T20:09:21.553Z,994.59
2018-07-28T20:12:25.944Z,994.59
2018-07-28T20:15:19.544Z,994.65
2018-07-28T20:18:17.824Z,994.69
2018-07-28T20:21:23.376Z,994.72
2018-07-28T20:24:28.071Z,994.73
2018-07-28T20:27:31.982Z,994.72
2018-07-28T20:30:15.634Z,994.74
2018-07-28T20:33:15.697Z,994.80
2018-07-28T20:36:15.369Z,994.90
2018-07-28T20:39:16.379Z,994.92
2018-07-28T20:42:15.379Z,994.94
2018-07-28T20:45:15.389Z,994.91
2018-07-28T20:48:15.881Z,994.93
2018-07-28T20:51:15.758Z,994.96
2018-07-28T20:54:15.721Z,994.96
2018-07-28T20:57:15.549Z,995.01
2018-07-28T21:00:16.028Z,995.03
2018-07-28T21:03:16.042Z,995.07
2018-07-28T21:06:15.638Z,995.09
2018-07-28T21:09:15.303Z,995.08
2018-07-28T21:12:15.657Z,995.11
2018-07-28T21:15:15.978Z,995.19
2018-07-28T21:18:15.410Z,995.16
2018-07-28T21:21:15.203Z,995.13
2018-07-28T21:24:15.512Z,995.16
2018-07-28T21:27:15.713Z,995.14
2018-07-28T21:30:15.063Z,995.17
2018-07-28T21:33:15.357Z,995.22
2018-07-28T21:36:15.519Z,995.27
2018-07-28T21:39:15.854Z,995.24
2018-07-28T21:42:15.210Z,995.29
2018-07-28T21:45:15.402Z,995.27
2018-07-28T21:51:15.879Z,995.24
2018-07-28T21:54:15.163Z,995.27
2018-07-28T21:57:15.346Z,995.29
2018-07-28T22:00:15.886Z,995.34
2018-07-28T22:03:15.972Z,995.36
2018-07-28T22:06:15.970Z,995.41
2018-07-28T22:09:17.021Z,995.37
2018-07-28T22:12:15.264Z,995.43
2018-07-28T22:15:15.381Z,995.47
2018-07-28T22:18:15.216Z,995.49
2018-07-28T22:21:15.349Z,995.45
2018-07-28T22:24:16.004Z,995.45
2018-07-28T22:27:15.490Z,995.46
2018-07-28T22:30:15.542Z,995.46
2018-07-28T22:33:16.030Z,995.43
2018-07-28T22:36:15.603Z,995.48
2018-07-28T22:39:15.728Z,995.43
2018-07-28T22:42:15.638Z,995.45
2018-07-28T22:45:15.875Z,995.50
2018-07-28T22:48:15.558Z,995.55
2018-07-28T22:51:15.360Z,995.57
2018-07-28T22:54:15.281Z,995.59
2018-07-28T22:57:16.219Z,995.62
2018-07-28T23:00:15.450Z,995.71
2018-07-28T23:03:15.659Z,995.71
2018-07-28T23:06:15.961Z,995.70
2018-07-28T23:09:15.982Z,995.69
2018-07-28T23:12:15.899Z,995.73
2018-07-28T23:15:15.995Z,995.79
2018-07-28T23:18:16.098Z,995.76
2018-07-28T23:21:15.637Z,995.77
2018-07-28T23:24:15.885Z,995.75
2018-07-28T23:27:15.868Z,995.70
2018-07-28T23:30:15.378Z,995.69
2018-07-28T23:33:15.747Z,995.61
2018-07-28T23:36:15.135Z,995.62
2018-07-28T23:39:15.875Z,995.62
2018-07-28T23:42:15.522Z,995.68
2018-07-28T23:45:15.313Z,995.71
2018-07-28T23:48:15.777Z,995.70
2018-07-28T23:51:15.527Z,995.73
2018-07-28T23:54:15.048Z,995.72
2018-07-28T23:57:15.430Z,995.73
